Time;durP1;ratioP1;P1;durP2;ratioP2;P2;SDS_P1;SDS_P2;PMS_P1;PMS_P2;Temp;Humidity;BMP_temperature;BMP_pressure;BME280_temperature;BME280_humidity;BME280_pressure;Samples;Min_cycle;Max_cycle;Signal;HPM_P1;HPM_P2
2023/03/16 00:00:42;;;;;;;15.77;11.73;;;;;;;11.73;52.44;98381.25;5163160;27;20235;-56
2023/03/16 00:03:10;;;;;;;12.53;11.23;;;;;;;11.74;53.06;98375.25;5163135;27;20181;-56
2023/03/16 00:05:37;;;;;;;11.93;10.57;;;;;;;11.65;54.72;98377.84;5163078;27;20188;-56
2023/03/16 00:08:04;;;;;;;13.50;12.07;;;;;;;11.65;54.83;98387.28;5162330;27;20412;-55
2023/03/16 00:10:31;;;;;;;16.70;10.67;;;;;;;11.65;55.00;98370.13;5162865;27;20215;-55
2023/03/16 00:12:58;;;;;;;14.67;11.20;;;;;;;11.70;54.77;98375.31;5162914;27;20162;-55
2023/03/16 00:15:24;;;;;;;12.47;10.27;;;;;;;11.67;54.90;98377.84;5162892;27;20154;-55
2023/03/16 00:17:51;;;;;;;12.53;11.23;;;;;;;11.68;55.41;98376.97;5162770;27;20150;-55
2023/03/16 00:20:19;;;;;;;12.80;9.53;;;;;;;11.60;56.08;98365.88;5162703;27;20158;-56
2023/03/16 00:22:46;;;;;;;12.40;9.57;;;;;;;11.57;56.87;98371.03;5162705;27;20154;-54
2023/03/16 00:25:14;;;;;;;12.13;9.67;;;;;;;11.36;57.45;98341.16;5162644;27;20157;-54
2023/03/16 00:27:41;;;;;;;10.60;9.37;;;;;;;11.56;57.26;98374.50;5162412;27;20220;-54
2023/03/16 00:30:10;;;;;;;12.40;9.90;;;;;;;11.53;57.88;98371.94;5162501;27;20199;-54
2023/03/16 00:32:38;;;;;;;13.33;9.67;;;;;;;11.32;58.11;98359.19;5162495;27;20177;-55
2023/03/16 00:35:06;;;;;;;10.57;8.77;;;;;;;11.46;59.10;98367.66;5162456;27;20150;-55
2023/03/16 00:37:35;;;;;;;12.37;8.93;;;;;;;11.45;59.52;98377.13;5162382;27;20150;-56
2023/03/16 00:40:06;;;;;;;11.00;9.90;;;;;;;11.10;60.26;98328.44;5162397;27;20162;-55
2023/03/16 00:42:33;;;;;;;12.20;9.43;;;;;;;11.40;60.28;98380.59;5162447;27;20150;-54
2023/03/16 00:45:00;;;;;;;10.30;9.03;;;;;;;11.37;60.69;98386.56;5162287;27;20213;-56
2023/03/16 00:47:29;;;;;;;9.97;8.97;;;;;;;11.37;60.89;98380.59;5162266;27;20219;-56
2023/03/16 00:49:56;;;;;;;10.43;8.77;;;;;;;11.32;61.34;98384.91;5161436;27;20195;-55
2023/03/16 00:52:23;;;;;;;9.53;8.63;;;;;;;11.36;61.52;98390.03;5162120;27;20180;-55
2023/03/16 00:54:52;;;;;;;10.17;8.93;;;;;;;11.33;62.03;98389.19;5162174;27;20192;-55
2023/03/16 00:57:20;;;;;;;11.07;9.27;;;;;;;11.37;62.25;98391.72;5162030;27;20185;-55
2023/03/16 00:59:48;;;;;;;12.03;9.37;;;;;;;11.39;62.39;98399.44;5162019;27;20168;-55
2023/03/16 01:02:18;;;;;;;10.73;9.50;;;;;;;11.40;62.98;98398.59;5161866;27;20219;-55
2023/03/16 01:04:45;;;;;;;10.00;8.50;;;;;;;11.31;63.09;98391.75;5161799;27;20179;-55
2023/03/16 01:07:14;;;;;;;10.10;9.00;;;;;;;11.38;63.42;98406.28;5161800;27;20165;-55
2023/03/16 01:09:42;;;;;;;12.97;8.37;;;;;;;11.33;64.37;98412.31;5161782;27;20244;-55
2023/03/16 01:12:12;;;;;;;9.67;8.73;;;;;;;11.32;64.29;98408.88;5161892;27;20154;-54
2023/03/16 01:14:41;;;;;;;15.33;8.87;;;;;;;11.14;64.47;98372.97;5161901;27;20175;-53
2023/03/16 01:17:09;;;;;;;10.97;9.03;;;;;;;11.30;65.14;98407.19;5161635;27;20181;-55
2023/03/16 01:19:37;;;;;;;10.53;8.33;;;;;;;11.21;65.06;98400.34;5161638;27;20168;-54
2023/03/16 01:22:05;;;;;;;10.80;9.70;;;;;;;11.35;65.42;98408.88;5160464;27;20484;-55
2023/03/16 01:24:31;;;;;;;9.67;8.70;;;;;;;11.39;65.11;98410.59;5161597;27;20390;-54
2023/03/16 01:26:58;;;;;;;9.17;8.27;;;;;;;11.40;65.09;98417.41;5161332;27;20209;-55
2023/03/16 01:29:26;;;;;;;9.60;8.53;;;;;;;11.36;65.57;98425.16;5161446;27;20184;-55
2023/03/16 01:31:54;;;;;;;8.20;7.40;;;;;;;11.19;65.79;98430.38;5152403;27;20196;-57
2023/03/16 01:34:22;;;;;;;6.70;6.10;;;;;;;11.02;65.91;98420.13;5140783;28;20154;-56
2023/03/16 01:36:49;;;;;;;9.07;6.20;;;;;;;10.81;67.21;98422.75;5149139;27;20170;-55
2023/03/16 01:39:17;;;;;;;6.90;6.30;;;;;;;10.91;67.16;98421.88;5161277;27;20179;-57
2023/03/16 01:41:44;;;;;;;6.63;6.03;;;;;;;10.94;66.50;98427.00;5161356;27;20154;-56
2023/03/16 01:44:13;;;;;;;6.83;6.20;;;;;;;10.91;66.52;98419.31;5161021;27;20174;-56
2023/03/16 01:46:43;;;;;;;6.27;5.67;;;;;;;10.85;66.37;98426.19;5161233;27;20164;-57
2023/03/16 01:49:12;;;;;;;6.00;5.40;;;;;;;10.68;66.30;98420.22;5161174;27;20172;-56
2023/03/16 01:51:45;;;;;;;4.87;4.40;;;;;;;10.65;65.94;98429.66;5161070;27;20154;-56
2023/03/16 01:54:19;;;;;;;4.50;4.03;;;;;;;10.53;65.23;98431.34;5161291;27;20150;-56
2023/03/16 01:56:51;;;;;;;5.03;4.20;;;;;;;10.43;65.31;98433.09;5161287;27;20178;-55
2023/03/16 01:59:21;;;;;;;4.70;4.30;;;;;;;10.39;64.79;98444.19;5161077;27;20401;-55
2023/03/16 02:01:51;;;;;;;4.43;4.00;;;;;;;10.31;65.37;98433.09;5160066;27;20150;-55
2023/03/16 02:04:32;;;;;;;4.33;4.00;;;;;;;10.32;64.89;98441.66;5161071;27;20164;-56
2023/03/16 02:07:00;;;;;;;3.70;3.40;;;;;;;10.29;64.50;98450.19;5161142;27;20146;-54
2023/03/16 02:09:28;;;;;;;5.67;3.30;;;;;;;10.15;64.42;98451.03;5161043;27;20207;-56
2023/03/16 02:11:55;;;;;;;4.00;3.70;;;;;;;10.09;64.55;98452.72;5160682;27;20149;-57
2023/03/16 02:14:23;;;;;;;3.80;3.50;;;;;;;10.04;64.82;98463.81;5160991;28;20160;-55
2023/03/16 02:16:52;;;;;;;3.77;3.47;;;;;;;10.01;64.63;98464.69;5160561;28;20198;-56
2023/03/16 02:19:30;;;;;;;3.47;3.27;;;;;;;9.99;64.69;98466.41;5160736;28;20167;-55
2023/03/16 02:22:02;;;;;;;3.63;3.33;;;;;;;9.97;64.94;98472.38;5160786;28;20153;-56
2023/03/16 02:24:29;;;;;;;4.00;3.70;;;;;;;9.98;65.10;98479.19;5160799;27;20149;-54
2023/03/16 02:27:00;;;;;;;4.23;3.83;;;;;;;9.99;65.40;98466.41;5160529;28;20173;-56
2023/03/16 02:29:58;;;;;;;3.93;3.57;;;;;;;9.96;65.42;98474.06;5160589;28;20187;-59
2023/03/16 02:32:27;;;;;;;4.43;3.80;;;;;;;9.95;65.28;98479.19;5160730;28;20165;-55
2023/03/16 02:34:55;;;;;;;4.27;3.87;;;;;;;9.92;65.61;98490.31;5160715;28;20179;-55
2023/03/16 02:37:22;;;;;;;4.07;3.77;;;;;;;9.94;65.96;98478.31;5160676;28;20172;-55
2023/03/16 02:39:49;;;;;;;5.67;4.33;;;;;;;9.99;65.92;98481.78;5160779;28;20217;-56
2023/03/16 02:42:20;;;;;;;4.33;3.93;;;;;;;9.97;66.35;98478.34;5160703;27;20154;-56
2023/03/16 02:44:50;;;;;;;8.07;3.80;;;;;;;9.91;66.05;98491.19;5160718;28;20183;-54
2023/03/16 02:47:24;;;;;;;4.90;3.83;;;;;;;9.88;65.84;98498.88;5160443;27;20186;-55
2023/03/16 02:49:51;;;;;;;4.40;4.00;;;;;;;9.94;65.55;98488.59;5160571;28;20156;-54
2023/03/16 02:52:18;;;;;;;3.87;3.57;;;;;;;9.80;65.69;98474.91;5160424;28;20161;-56
2023/03/16 02:54:45;;;;;;;3.70;3.40;;;;;;;9.85;65.15;98503.97;5155954;28;20177;-56
2023/03/16 02:57:12;;;;;;;3.83;3.53;;;;;;;9.82;63.78;98505.66;5149826;28;20170;-56
2023/03/16 02:59:38;;;;;;;3.47;3.17;;;;;;;9.75;64.39;98491.13;5160513;28;20154;-55
2023/03/16 03:02:05;;;;;;;3.93;3.50;;;;;;;9.65;64.63;98505.59;5160496;27;20180;-55
2023/03/16 03:04:33;;;;;;;3.53;3.23;;;;;;;9.66;64.37;98509.91;5160349;28;20154;-55
2023/03/16 03:07:03;;;;;;;4.20;3.80;;;;;;;9.57;64.30;98509.84;5160432;28;20155;-55
2023/03/16 03:09:32;;;;;;;5.43;4.20;;;;;;;9.57;63.94;98525.22;5160396;28;20165;-56
2023/03/16 03:11:59;;;;;;;5.50;4.47;;;;;;;9.57;63.61;98521.81;5160406;28;20186;-54
2023/03/16 03:14:27;;;;;;;6.53;3.80;;;;;;;9.57;63.05;98540.63;5159833;27;20169;-58
2023/03/16 03:16:54;;;;;;;4.80;3.47;;;;;;;9.51;63.63;98517.50;5143541;28;20193;-55
2023/03/16 03:19:21;;;;;;;3.60;3.30;;;;;;;9.47;63.64;98550.00;5143499;28;20162;-55
2023/03/16 03:21:50;;;;;;;7.83;3.73;;;;;;;9.35;63.74;98531.09;5143540;28;20158;-56
2023/03/16 03:24:17;;;;;;;4.27;3.87;;;;;;;9.32;63.75;98541.34;5143315;28;20166;-54
2023/03/16 03:26:45;;;;;;;4.77;3.97;;;;;;;9.32;63.93;98549.88;5143130;28;20191;-54
2023/03/16 03:29:12;;;;;;;4.33;3.93;;;;;;;9.30;63.98;98549.03;5143280;28;20186;-56
2023/03/16 03:31:39;;;;;;;4.13;3.73;;;;;;;9.28;64.44;98555.00;5143401;28;20193;-55
2023/03/16 03:34:06;;;;;;;4.07;3.40;;;;;;;9.17;64.55;98554.94;5143558;28;20155;-56
2023/03/16 03:36:33;;;;;;;4.97;3.60;;;;;;;9.13;64.84;98557.44;5143546;28;20155;-57
2023/03/16 03:39:04;;;;;;;4.47;3.80;;;;;;;9.06;64.87;98561.69;5143398;28;20158;-55
2023/03/16 03:41:31;;;;;;;3.87;3.23;;;;;;;9.07;65.26;98552.28;5143311;28;20165;-54
2023/03/16 03:43:58;;;;;;;3.80;3.50;;;;;;;9.11;65.13;98561.72;5143374;28;20162;-56
2023/03/16 03:46:25;;;;;;;3.73;3.43;;;;;;;9.11;65.20;98557.44;5143326;28;20151;-55
2023/03/16 03:48:52;;;;;;;4.50;3.67;;;;;;;9.19;65.02;98570.31;5143131;28;20180;-55
2023/03/16 03:51:20;;;;;;;3.87;3.47;;;;;;;9.14;65.12;98577.97;5143103;28;20206;-56
2023/03/16 03:53:47;;;;;;;4.40;3.23;;;;;;;9.15;65.54;98566.84;5143198;28;20187;-55
2023/03/16 03:56:15;;;;;;;3.23;2.87;;;;;;;9.18;65.52;98574.56;5143084;28;20161;-56
2023/03/16 03:58:42;;;;;;;4.73;4.27;;;;;;;9.14;65.33;98571.97;5142225;28;20413;-56
2023/03/16 04:01:09;;;;;;;4.77;3.80;;;;;;;9.08;65.48;98570.22;5142888;28;20406;-55
2023/03/16 04:03:35;;;;;;;3.93;3.63;;;;;;;9.06;65.44;98563.38;5142927;28;20168;-56
2023/03/16 04:06:02;;;;;;;4.30;3.70;;;;;;;9.00;65.96;98569.31;5142906;28;20172;-56
2023/03/16 04:08:29;;;;;;;4.00;3.60;;;;;;;8.98;65.99;98570.16;5142842;28;20147;-55
2023/03/16 04:10:56;;;;;;;4.07;3.67;;;;;;;8.98;65.65;98606.03;5142776;28;20245;-56
2023/03/16 04:13:24;;;;;;;6.07;3.70;;;;;;;8.83;65.78;98581.13;5142656;28;20158;-56
2023/03/16 04:15:56;;;;;;;5.07;3.10;;;;;;;8.75;65.80;98583.63;5142228;28;20170;-56
2023/03/16 04:18:23;;;;;;;3.70;3.40;;;;;;;8.75;65.78;98596.44;5142341;28;20154;-55
2023/03/16 04:20:51;;;;;;;4.15;3.47;;;;;;;8.73;66.01;98592.16;5142037;28;20405;-56
2023/03/16 04:23:18;;;;;;;4.80;3.40;;;;;;;8.71;65.26;98602.34;5142115;28;20171;-55
2023/03/16 04:25:46;;;;;;;3.30;3.00;;;;;;;8.72;65.18;98611.78;5141196;28;20153;-56
2023/03/16 04:28:16;;;;;;;4.43;3.30;;;;;;;8.66;65.47;98605.72;5141931;28;20182;-55
2023/03/16 04:30:44;;;;;;;3.70;3.40;;;;;;;8.69;64.96;98621.13;5141945;28;20171;-55
2023/03/16 04:33:11;;;;;;;6.27;4.10;;;;;;;8.57;65.17;98623.56;5141965;28;20275;-57
2023/03/16 04:35:38;;;;;;;2.80;2.60;;;;;;;8.53;64.99;98622.69;5141861;27;20174;-56
2023/03/16 04:38:05;;;;;;;3.07;2.80;;;;;;;8.50;65.39;98617.53;5141971;28;20178;-56
2023/03/16 04:40:31;;;;;;;3.07;2.77;;;;;;;8.53;64.85;98622.69;5141890;28;20182;-53
2023/03/16 04:42:58;;;;;;;3.47;2.40;;;;;;;8.53;64.48;98629.50;5141802;28;20180;-54
2023/03/16 04:45:25;;;;;;;5.00;2.93;;;;;;;8.47;64.63;98640.53;5141510;28;20161;-55
2023/03/16 04:47:53;;;;;;;3.63;3.03;;;;;;;8.46;64.62;98627.72;5141671;28;20158;-56
2023/03/16 04:50:21;;;;;;;3.50;2.43;;;;;;;8.51;64.22;98634.63;5141531;28;20159;-55
2023/03/16 04:52:48;;;;;;;3.00;2.80;;;;;;;8.38;63.76;98607.16;5141549;28;20193;-56
2023/03/16 04:55:15;;;;;;;4.77;3.00;;;;;;;8.58;63.91;98649.19;5141433;28;20184;-56
2023/03/16 04:57:41;;;;;;;3.03;2.73;;;;;;;8.60;63.86;98646.63;5141423;28;20154;-56
2023/03/16 05:00:13;;;;;;;3.00;2.70;;;;;;;8.33;63.94;98603.69;5141200;28;20399;-56
2023/03/16 05:02:40;;;;;;;3.53;2.70;;;;;;;8.58;63.31;98654.28;5141418;28;20147;-55
2023/03/16 05:05:09;;;;;;;2.57;2.37;;;;;;;8.55;63.33;98661.94;5141230;28;20154;-56
2023/03/16 05:07:36;;;;;;;2.47;2.27;;;;;;;8.46;62.62;98664.41;5141525;28;20155;-56
2023/03/16 05:10:02;;;;;;;4.13;2.40;;;;;;;8.35;62.82;98645.50;5141458;28;20154;-55
2023/03/16 05:12:29;;;;;;;2.37;1.83;;;;;;;8.46;62.01;98673.81;5141152;28;20182;-55
2023/03/16 05:14:56;;;;;;;2.43;2.20;;;;;;;8.55;61.54;98679.88;5141197;28;20154;-56
2023/03/16 05:17:23;;;;;;;3.90;2.30;;;;;;;8.49;61.28;98684.91;5141253;28;20154;-55
2023/03/16 05:19:49;;;;;;;2.33;2.13;;;;;;;8.55;61.00;98682.41;5140277;28;20192;-57
2023/03/16 05:22:18;;;;;;;3.10;2.30;;;;;;;8.50;60.58;98693.44;5144764;27;20188;-56
2023/03/16 05:24:44;;;;;;;1.80;1.70;;;;;;;8.53;60.72;98701.16;5140005;28;20462;-56
2023/03/16 05:27:11;;;;;;;3.00;1.90;;;;;;;8.58;59.89;98707.19;5140542;28;20197;-55
2023/03/16 05:29:38;;;;;;;1.73;1.63;;;;;;;8.59;59.78;98701.25;5140915;28;20428;-54
2023/03/16 05:32:06;;;;;;;1.70;1.60;;;;;;;8.59;59.94;98714.06;5140929;28;20190;-56
2023/03/16 05:34:33;;;;;;;2.07;1.87;;;;;;;8.61;60.07;98710.66;5140978;28;20157;-55
2023/03/16 05:36:59;;;;;;;1.70;1.60;;;;;;;8.56;59.51;98719.13;5140733;27;20160;-56
2023/03/16 05:39:29;;;;;;;1.80;1.70;;;;;;;8.53;59.45;98714.84;5140818;28;20154;-55
2023/03/16 05:41:56;;;;;;;1.90;1.77;;;;;;;8.52;59.47;98723.34;5140646;28;20197;-56
2023/03/16 05:44:23;;;;;;;1.87;1.73;;;;;;;8.43;59.24;98725.81;5140690;28;20157;-55
2023/03/16 05:46:50;;;;;;;2.83;2.07;;;;;;;8.48;58.84;98724.16;5140700;28;20158;-56
2023/03/16 05:49:17;;;;;;;2.00;1.80;;;;;;;8.34;58.68;98706.91;5140657;28;20155;-55
2023/03/16 05:51:44;;;;;;;2.00;1.80;;;;;;;8.30;58.69;98717.09;5140249;28;20204;-56
2023/03/16 05:54:10;;;;;;;1.63;1.53;;;;;;;8.37;58.66;98725.75;5140460;28;20150;-56
2023/03/16 05:56:39;;;;;;;2.37;2.17;;;;;;;8.30;58.91;98735.03;5140349;28;20154;-56
2023/03/16 05:59:05;;;;;;;1.80;1.70;;;;;;;8.32;58.89;98739.31;5140390;28;20155;-55
2023/03/16 06:01:33;;;;;;;2.80;2.30;;;;;;;8.30;59.07;98739.28;5140411;28;20184;-55
2023/03/16 06:04:01;;;;;;;2.30;1.77;;;;;;;8.36;59.06;98734.25;5140276;28;20166;-56
2023/03/16 06:06:28;;;;;;;2.03;1.83;;;;;;;8.40;58.77;98753.94;5139135;28;20182;-54
2023/03/16 06:08:55;;;;;;;2.40;1.70;;;;;;;8.40;58.72;98742.81;5147625;27;20194;-55
2023/03/16 06:11:21;;;;;;;2.07;1.97;;;;;;;8.50;58.89;98755.75;5160487;27;20211;-55
2023/03/16 06:13:50;;;;;;;3.13;2.07;;;;;;;8.55;59.29;98753.25;5160336;27;20154;-55
2023/03/16 06:16:16;;;;;;;2.20;2.00;;;;;;;7.91;59.19;98639.81;5160198;28;20153;-55
2023/03/16 06:18:43;;;;;;;2.83;2.00;;;;;;;8.60;58.87;98757.56;5160073;28;20165;-55
2023/03/16 06:21:10;;;;;;;4.27;2.40;;;;;;;8.64;59.22;98763.59;5160341;28;20186;-55
2023/03/16 06:23:37;;;;;;;4.10;1.80;;;;;;;8.42;57.73;98747.13;5160044;28;20157;-55
2023/03/16 06:26:04;;;;;;;2.17;1.80;;;;;;;8.42;57.90;98752.25;5159869;27;20154;-56
2023/03/16 06:28:30;;;;;;;2.43;1.87;;;;;;;8.53;57.77;98765.16;5160138;28;20252;-55
2023/03/16 06:30:59;;;;;;;4.47;1.93;;;;;;;8.49;57.79;98769.38;5160187;27;20188;-55
2023/03/16 06:33:26;;;;;;;2.63;1.80;;;;;;;8.59;57.72;98781.47;5160199;28;20153;-55
2023/03/16 06:35:52;;;;;;;1.80;1.70;;;;;;;8.61;57.55;98778.94;5160329;28;20168;-55
2023/03/16 06:38:19;;;;;;;1.57;1.47;;;;;;;8.67;57.80;98796.94;5159833;27;20162;-55
2023/03/16 06:40:46;;;;;;;3.60;2.20;;;;;;;8.74;57.07;98785.91;5158859;27;20409;-55
2023/03/16 06:43:13;;;;;;;1.67;1.37;;;;;;;8.82;56.27;98795.41;5159858;27;20164;-55
2023/03/16 06:45:40;;;;;;;5.83;2.40;;;;;;;8.72;56.08;98798.72;5159991;28;20168;-55
2023/03/16 06:48:08;;;;;;;3.10;1.60;;;;;;;8.65;55.97;98794.34;5161002;27;20200;-55
2023/03/16 06:50:35;;;;;;;1.60;1.30;;;;;;;8.62;56.25;98802.00;5163570;27;20154;-53
2023/03/16 06:53:02;;;;;;;2.10;1.90;;;;;;;8.71;56.30;98814.03;5163953;27;20215;-53
2023/03/16 06:55:30;;;;;;;1.90;1.80;;;;;;;8.76;56.51;98809.84;5163757;27;20154;-56
2023/03/16 06:57:57;;;;;;;5.30;2.00;;;;;;;8.01;56.52;98686.84;5163608;27;20229;-56
2023/03/16 07:00:24;;;;;;;1.70;1.60;;;;;;;8.80;56.30;98821.84;5163063;27;20157;-55
2023/03/16 07:02:51;;;;;;;1.98;1.85;;;;;;;8.78;55.67;98823.53;5161876;27;20405;-53
2023/03/16 07:05:19;;;;;;;2.53;1.90;;;;;;;8.78;55.54;98826.09;5162150;27;20154;-56
2023/03/16 07:07:46;;;;;;;2.33;1.83;;;;;;;8.84;55.67;98833.88;5162095;27;20154;-55
2023/03/16 07:10:14;;;;;;;1.70;1.60;;;;;;;8.85;55.72;98831.31;5162355;27;20154;-54
2023/03/16 07:12:42;;;;;;;1.60;1.50;;;;;;;8.58;55.75;98795.09;5162564;27;20193;-55
2023/03/16 07:15:09;;;;;;;1.80;1.67;;;;;;;8.82;55.63;98836.38;5162720;27;20157;-55
2023/03/16 07:17:36;;;;;;;2.30;1.67;;;;;;;8.85;56.00;98836.44;5162757;27;20169;-55
2023/03/16 07:20:04;;;;;;;2.00;1.87;;;;;;;8.87;55.98;98839.03;5164060;27;20164;-56
2023/03/16 07:22:32;;;;;;;2.27;2.10;;;;;;;8.88;56.26;98845.84;5163904;27;20154;-55
2023/03/16 07:25:00;;;;;;;1.87;1.77;;;;;;;8.92;55.51;98849.31;5163899;27;20158;-56
2023/03/16 07:27:28;;;;;;;2.50;2.20;;;;;;;8.89;55.52;98843.31;5163402;27;20211;-56
2023/03/16 07:29:55;;;;;;;2.23;1.93;;;;;;;8.84;55.35;98844.94;5163646;27;20165;-55
2023/03/16 07:32:22;;;;;;;4.40;1.90;;;;;;;8.86;55.27;98855.22;5163424;27;20181;-56
2023/03/16 07:34:49;;;;;;;2.10;2.00;;;;;;;8.77;55.73;98858.53;5163576;27;20187;-55
2023/03/16 07:37:16;;;;;;;2.20;1.90;;;;;;;8.80;55.51;98856.00;5162762;27;20180;-56
2023/03/16 07:39:44;;;;;;;2.50;1.93;;;;;;;8.84;55.38;98868.00;5146250;27;20166;-56
2023/03/16 07:42:11;;;;;;;3.03;2.10;;;;;;;8.66;55.35;98831.91;5157247;27;20244;-56
2023/03/16 07:44:37;;;;;;;2.37;2.20;;;;;;;8.84;55.82;98849.22;5144451;27;20182;-56
2023/03/16 07:47:05;;;;;;;2.23;2.03;;;;;;;8.88;55.37;98844.16;5163221;27;20152;-56
2023/03/16 07:49:32;;;;;;;3.07;2.30;;;;;;;8.97;55.47;98851.09;5162789;27;20173;-57
2023/03/16 07:51:59;;;;;;;5.70;1.97;;;;;;;9.07;55.54;98846.91;5162927;27;20189;-55
2023/03/16 07:54:26;;;;;;;1.90;1.80;;;;;;;9.16;54.90;98853.03;5162586;27;20172;-55
2023/03/16 07:56:54;;;;;;;2.43;1.73;;;;;;;9.19;54.71;98850.50;5162834;27;20166;-55
2023/03/16 07:59:20;;;;;;;4.57;2.33;;;;;;;9.16;54.58;98859.84;5162911;27;20171;-55
2023/03/16 08:01:47;;;;;;;2.40;2.20;;;;;;;9.19;55.04;98858.19;5162011;27;20193;-55
2023/03/16 08:04:15;;;;;;;2.50;1.90;;;;;;;9.29;54.81;98856.56;5161311;27;20174;-55
2023/03/16 08:06:42;;;;;;;2.77;1.90;;;;;;;9.31;54.67;98852.34;5157432;27;20166;-55
2023/03/16 08:09:08;;;;;;;5.50;2.50;;;;;;;9.48;54.63;98861.91;5156405;27;20429;-55
2023/03/16 08:11:35;;;;;;;4.40;2.30;;;;;;;9.60;53.58;98850.94;5155424;27;20254;-56
2023/03/16 08:14:04;;;;;;;4.05;2.20;;;;;;;9.69;53.16;98871.53;5153119;27;20412;-55
2023/03/16 08:16:31;;;;;;;2.07;1.97;;;;;;;9.65;52.88;98866.34;5145320;27;20186;-56
2023/03/16 08:18:58;;;;;;;2.73;1.83;;;;;;;9.67;53.04;98872.38;5142201;28;20158;-56
2023/03/16 08:21:25;;;;;;;2.40;1.87;;;;;;;9.73;52.36;98867.28;5142223;28;20155;-56
2023/03/16 08:23:52;;;;;;;2.73;1.77;;;;;;;9.72;51.79;98876.72;5142213;28;20151;-55
2023/03/16 08:26:21;;;;;;;2.60;1.77;;;;;;;9.73;51.80;98868.16;5141828;28;20159;-55
2023/03/16 08:28:50;;;;;;;1.80;1.60;;;;;;;9.93;51.27;98884.59;5141969;28;20195;-55
2023/03/16 08:31:21;;;;;;;2.30;1.75;;;;;;;9.73;51.32;98878.41;5155051;27;20409;-55
2023/03/16 08:33:49;;;;;;;1.80;1.70;;;;;;;9.94;51.11;98888.84;5151306;27;20188;-55
2023/03/16 08:36:17;;;;;;;2.43;2.23;;;;;;;9.81;51.25;98888.72;5162042;27;20153;-56
2023/03/16 08:38:45;;;;;;;3.90;1.73;;;;;;;9.87;51.45;98901.63;5161955;27;20160;-56
2023/03/16 08:41:15;;;;;;;4.83;2.40;;;;;;;10.07;50.81;98890.72;5151455;27;20169;-55
2023/03/16 08:43:43;;;;;;;2.53;1.90;;;;;;;10.07;50.26;98893.28;5159824;27;20182;-55
2023/03/16 08:46:12;;;;;;;2.17;1.93;;;;;;;10.27;50.09;98897.75;5160308;27;20166;-55
2023/03/16 08:48:41;;;;;;;3.73;1.97;;;;;;;10.42;49.20;98901.28;5157263;27;20158;-56
2023/03/16 08:51:09;;;;;;;2.60;1.53;;;;;;;10.47;49.39;98898.72;5161775;27;20226;-57
2023/03/16 08:53:36;;;;;;;1.70;1.60;;;;;;;10.37;49.15;98899.53;5161747;27;20173;-56
2023/03/16 08:56:05;;;;;;;3.37;1.53;;;;;;;10.50;48.95;98889.34;5161930;27;20171;-57
2023/03/16 08:58:32;;;;;;;1.53;1.43;;;;;;;10.63;48.72;98897.97;5161647;27;20218;-57
2023/03/16 09:01:00;;;;;;;1.70;1.60;;;;;;;10.80;48.14;98898.94;5144493;27;20188;-56
2023/03/16 09:03:27;;;;;;;2.30;1.60;;;;;;;10.98;47.58;98883.63;5146944;27;20199;-55
2023/03/16 09:06:01;;;;;;;2.20;1.40;;;;;;;10.82;48.00;98894.69;5161731;27;20154;-55
2023/03/16 09:08:30;;;;;;;2.00;1.80;;;;;;;10.85;48.07;98902.41;5155233;27;20167;-56
2023/03/16 09:11:00;;;;;;;10.53;2.40;;;;;;;10.85;47.99;98899.81;5140649;28;20177;-56
2023/03/16 09:13:27;;;;;;;3.35;2.05;;;;;;;10.97;47.63;98899.91;5142792;27;20427;-56
2023/03/16 09:15:55;;;;;;;2.00;1.80;;;;;;;11.19;46.88;98898.28;5155243;27;20226;-55
2023/03/16 09:18:22;;;;;;;2.70;1.60;;;;;;;10.97;47.27;98894.75;5160993;27;20168;-56
2023/03/16 09:20:50;;;;;;;2.67;1.60;;;;;;;11.17;46.92;98900.00;5161770;27;20150;-56
2023/03/16 09:23:19;;;;;;;3.20;2.27;;;;;;;11.32;46.92;98892.31;5161737;27;20158;-57
2023/03/16 09:25:47;;;;;;;2.00;1.90;;;;;;;11.51;46.78;98900.97;5161665;27;20181;-56
2023/03/16 09:28:13;;;;;;;2.13;1.63;;;;;;;11.43;46.30;98895.78;5161292;27;20185;-56
2023/03/16 09:30:41;;;;;;;2.45;1.73;;;;;;;11.27;46.26;98900.03;5160952;27;20398;-55
2023/03/16 09:33:07;;;;;;;2.10;1.90;;;;;;;11.43;46.20;98905.22;5161255;27;20205;-55
2023/03/16 09:35:35;;;;;;;1.80;1.70;;;;;;;11.56;46.54;98901.84;5161276;27;20243;-55
2023/03/16 09:38:02;;;;;;;3.80;2.00;;;;;;;11.76;46.10;98905.34;5161074;27;20219;-57
2023/03/16 09:40:32;;;;;;;2.07;1.97;;;;;;;12.13;44.98;98901.97;5160809;27;20180;-55
2023/03/16 09:43:15;;;;;;;6.57;1.80;;;;;;;12.09;44.42;98902.81;5161161;27;20157;-55
2023/03/16 09:45:49;;;;;;;2.37;1.30;;;;;;;11.98;44.39;98883.94;5161170;27;20173;-55
2023/03/16 09:48:19;;;;;;;1.70;1.60;;;;;;;12.18;44.18;98905.41;5161191;27;20156;-55
2023/03/16 09:50:47;;;;;;;2.17;1.70;;;;;;;12.16;43.93;98904.56;5161280;27;20157;-55
2023/03/16 09:53:23;;;;;;;1.87;1.77;;;;;;;12.03;44.38;98907.94;5161117;27;20185;-56
2023/03/16 09:55:58;;;;;;;3.13;1.93;;;;;;;11.74;44.80;98909.63;5160486;27;20162;-55
2023/03/16 09:58:25;;;;;;;3.60;2.00;;;;;;;11.93;44.79;98916.53;5160977;27;20149;-57
2023/03/16 10:01:03;;;;;;;1.70;1.60;;;;;;;11.65;45.40;98909.56;5160321;27;20420;-56
2023/03/16 10:03:47;;;;;;;1.83;1.70;;;;;;;11.62;45.17;98907.84;5160744;27;20158;-54
2023/03/16 10:06:15;;;;;;;2.17;1.97;;;;;;;11.65;44.77;98904.44;5160861;27;20221;-55
2023/03/16 10:08:45;;;;;;;2.30;1.93;;;;;;;11.16;45.11;98816.84;5160359;27;20164;-56
2023/03/16 10:11:24;;;;;;;1.73;1.63;;;;;;;11.65;44.70;98917.28;5160425;27;20182;-56
2023/03/16 10:13:56;;;;;;;3.33;2.13;;;;;;;11.91;44.63;98915.69;5160713;27;20193;-56
2023/03/16 10:16:27;;;;;;;2.60;2.30;;;;;;;11.97;43.96;98907.09;5160452;27;20408;-55
2023/03/16 10:19:01;;;;;;;1.83;1.73;;;;;;;11.95;43.91;98907.09;5160549;28;20186;-55
2023/03/16 10:21:34;;;;;;;1.70;1.60;;;;;;;12.21;43.98;98910.56;5160522;27;20153;-56
2023/03/16 10:24:03;;;;;;;3.17;2.43;;;;;;;12.38;43.52;98908.84;5163055;27;20160;-55
2023/03/16 10:26:39;;;;;;;2.70;2.40;;;;;;;12.56;42.22;98913.09;5164614;27;20175;-56
2023/03/16 10:29:12;;;;;;;2.07;1.60;;;;;;;12.62;42.47;98922.56;5164219;27;20177;-56
2023/03/16 10:31:40;;;;;;;5.63;2.20;;;;;;;12.57;42.49;98901.09;5159577;27;20162;-58
2023/03/16 10:34:09;;;;;;;2.20;2.00;;;;;;;12.51;43.01;98913.97;5144824;27;20196;-56
2023/03/16 10:36:39;;;;;;;8.50;1.80;;;;;;;12.59;42.64;98913.09;5153369;27;20145;-56
2023/03/16 10:39:07;;;;;;;2.77;2.00;;;;;;;12.64;42.32;98911.38;5164250;27;20216;-56
2023/03/16 10:41:37;;;;;;;3.00;1.83;;;;;;;12.69;42.49;98903.66;5164503;27;20153;-55
2023/03/16 10:44:11;;;;;;;2.33;1.90;;;;;;;12.82;42.20;98897.63;5164947;27;20176;-56
2023/03/16 10:46:40;;;;;;;3.25;1.80;;;;;;;12.78;41.78;98904.47;5163256;27;20416;-56
2023/03/16 10:49:20;;;;;;;3.17;2.27;;;;;;;13.01;41.59;98917.31;5144717;27;20173;-57
2023/03/16 10:51:47;;;;;;;2.60;2.10;;;;;;;13.05;41.39;98913.88;5143537;28;20150;-56
2023/03/16 10:54:16;;;;;;;3.73;2.50;;;;;;;13.16;40.93;98906.97;5155230;27;20188;-56
2023/03/16 10:56:44;;;;;;;2.30;2.10;;;;;;;13.20;41.05;98918.16;5150612;27;20180;-56
2023/03/16 10:59:16;;;;;;;2.40;2.17;;;;;;;13.10;40.84;98891.56;5143684;28;20165;-56
2023/03/16 11:01:45;;;;;;;2.22;2.03;;;;;;;13.03;40.99;98900.97;5143448;28;20401;-57
2023/03/16 11:04:16;;;;;;;4.03;2.07;;;;;;;13.24;40.82;98907.81;5143330;28;20158;-56
2023/03/16 11:06:49;;;;;;;2.20;2.07;;;;;;;13.02;41.03;98911.28;5143339;28;20166;-56
2023/03/16 11:09:22;;;;;;;2.53;2.30;;;;;;;13.05;41.33;98900.13;5154561;27;20418;-56
2023/03/16 11:11:51;;;;;;;2.13;1.93;;;;;;;13.42;40.30;98907.75;5163742;27;20172;-55
2023/03/16 11:14:21;;;;;;;3.60;1.97;;;;;;;13.32;40.78;98905.22;5163419;27;20203;-56
2023/03/16 11:16:53;;;;;;;2.23;2.03;;;;;;;13.37;40.51;98904.34;5163486;27;20154;-56
2023/03/16 11:19:24;;;;;;;2.13;2.03;;;;;;;13.26;40.40;98902.66;5163960;27;20154;-56
2023/03/16 11:21:56;;;;;;;2.57;2.00;;;;;;;13.18;41.03;98902.69;5163920;27;20213;-55
2023/03/16 11:24:30;;;;;;;4.33;2.10;;;;;;;13.09;41.50;98904.44;5161403;27;20167;-56
2023/03/16 11:27:02;;;;;;;14.87;2.50;;;;;;;12.62;41.75;98860.69;5159785;27;20158;-56
2023/03/16 11:29:39;;;;;;;2.60;2.40;;;;;;;12.84;41.55;98894.16;5163709;27;20160;-55
2023/03/16 11:32:14;;;;;;;2.20;2.00;;;;;;;12.94;41.18;98903.59;5163870;27;20207;-56
2023/03/16 11:34:42;;;;;;;4.30;2.17;;;;;;;12.98;41.47;98887.25;5163233;27;20169;-56
2023/03/16 11:37:20;;;;;;;2.30;2.17;;;;;;;12.70;42.06;98885.59;5163629;27;20171;-57
2023/03/16 11:39:58;;;;;;;2.43;2.23;;;;;;;12.80;42.29;98886.47;5163501;27;20229;-55
2023/03/16 11:42:37;;;;;;;2.47;2.27;;;;;;;12.95;42.00;98895.00;5163549;27;20166;-54